sensor_id;sensor_type;location;lat;lon;timestamp;P1;durP1;ratioP1;P2;durP2;ratioP2
8574;SDS011;4325;42.520;27.448;2022-11-20T00:01:03;13.77;;;4.37;;
8574;SDS011;4325;42.520;27.448;2022-11-20T00:03:31;12.83;;;3.80;;
8574;SDS011;4325;42.520;27.448;2022-11-20T00:05:59;18.83;;;5.50;;
8574;SDS011;4325;42.520;27.448;2022-11-20T00:08:26;19.00;;;4.60;;
8574;SDS011;4325;42.520;27.448;2022-11-20T00:10:53;11.23;;;3.87;;
8574;SDS011;4325;42.520;27.448;2022-11-20T00:13:21;14.00;;;4.10;;
8574;SDS011;4325;42.520;27.448;2022-11-20T00:15:48;13.70;;;4.07;;
8574;SDS011;4325;42.520;27.448;2022-11-20T00:18:15;9.43;;;3.90;;
8574;SDS011;4325;42.520;27.448;2022-11-20T00:20:42;15.50;;;4.17;;
8574;SDS011;4325;42.520;27.448;2022-11-20T00:23:08;11.63;;;3.60;;
8574;SDS011;4325;42.520;27.448;2022-11-20T00:25:35;16.23;;;4.10;;
8574;SDS011;4325;42.520;27.448;2022-11-20T00:28:02;12.97;;;4.07;;
8574;SDS011;4325;42.520;27.448;2022-11-20T00:30:30;12.87;;;4.40;;
8574;SDS011;4325;42.520;27.448;2022-11-20T00:32:57;9.77;;;4.37;;
8574;SDS011;4325;42.520;27.448;2022-11-20T00:35:24;16.60;;;3.87;;
8574;SDS011;4325;42.520;27.448;2022-11-20T00:37:51;9.67;;;3.50;;
8574;SDS011;4325;42.520;27.448;2022-11-20T00:40:18;16.50;;;4.37;;
8574;SDS011;4325;42.520;27.448;2022-11-20T00:42:44;9.13;;;4.20;;
8574;SDS011;4325;42.520;27.448;2022-11-20T00:45:11;13.07;;;4.10;;
8574;SDS011;4325;42.520;27.448;2022-11-20T00:47:39;7.57;;;3.77;;
8574;SDS011;4325;42.520;27.448;2022-11-20T00:50:07;14.27;;;3.47;;
8574;SDS011;4325;42.520;27.448;2022-11-20T00:52:34;10.30;;;3.20;;
8574;SDS011;4325;42.520;27.448;2022-11-20T00:55:01;10.40;;;3.53;;
8574;SDS011;4325;42.520;27.448;2022-11-20T00:57:27;14.50;;;4.27;;
8574;SDS011;4325;42.520;27.448;2022-11-20T00:59:54;13.33;;;4.43;;
8574;SDS011;4325;42.520;27.448;2022-11-20T01:02:21;13.87;;;3.67;;
8574;SDS011;4325;42.520;27.448;2022-11-20T01:04:49;9.10;;;2.87;;
8574;SDS011;4325;42.520;27.448;2022-11-20T01:07:16;10.80;;;2.93;;
8574;SDS011;4325;42.520;27.448;2022-11-20T01:09:43;13.67;;;4.37;;
8574;SDS011;4325;42.520;27.448;2022-11-20T01:12:10;10.13;;;3.20;;
8574;SDS011;4325;42.520;27.448;2022-11-20T01:14:37;13.90;;;3.40;;
8574;SDS011;4325;42.520;27.448;2022-11-20T01:17:04;9.63;;;3.30;;
8574;SDS011;4325;42.520;27.448;2022-11-20T01:19:30;14.60;;;4.00;;
8574;SDS011;4325;42.520;27.448;2022-11-20T01:21:59;11.90;;;3.70;;
8574;SDS011;4325;42.520;27.448;2022-11-20T01:24:25;12.93;;;3.70;;
8574;SDS011;4325;42.520;27.448;2022-11-20T01:26:52;14.63;;;4.43;;
8574;SDS011;4325;42.520;27.448;2022-11-20T01:29:20;20.27;;;4.10;;
8574;SDS011;4325;42.520;27.448;2022-11-20T01:31:49;13.97;;;4.13;;
8574;SDS011;4325;42.520;27.448;2022-11-20T01:34:17;12.73;;;4.10;;
8574;SDS011;4325;42.520;27.448;2022-11-20T01:36:45;14.57;;;3.73;;
8574;SDS011;4325;42.520;27.448;2022-11-20T01:39:14;10.27;;;3.17;;
8574;SDS011;4325;42.520;27.448;2022-11-20T01:41:43;12.23;;;3.77;;
8574;SDS011;4325;42.520;27.448;2022-11-20T01:44:43;12.17;;;4.03;;
8574;SDS011;4325;42.520;27.448;2022-11-20T01:47:16;14.97;;;3.77;;
8574;SDS011;4325;42.520;27.448;2022-11-20T01:49:47;12.43;;;3.43;;
8574;SDS011;4325;42.520;27.448;2022-11-20T01:52:17;12.33;;;3.77;;
8574;SDS011;4325;42.520;27.448;2022-11-20T01:54:48;17.03;;;4.10;;
8574;SDS011;4325;42.520;27.448;2022-11-20T01:57:20;13.53;;;3.77;;
8574;SDS011;4325;42.520;27.448;2022-11-20T01:59:50;17.87;;;3.57;;
8574;SDS011;4325;42.520;27.448;2022-11-20T02:02:22;11.57;;;3.40;;
8574;SDS011;4325;42.520;27.448;2022-11-20T02:04:49;14.90;;;3.13;;
8574;SDS011;4325;42.520;27.448;2022-11-20T02:07:20;12.87;;;3.60;;
8574;SDS011;4325;42.520;27.448;2022-11-20T02:09:50;15.53;;;3.33;;
8574;SDS011;4325;42.520;27.448;2022-11-20T02:12:17;15.60;;;3.67;;
8574;SDS011;4325;42.520;27.448;2022-11-20T02:14:58;21.50;;;3.40;;
8574;SDS011;4325;42.520;27.448;2022-11-20T02:17:25;14.57;;;3.57;;
8574;SDS011;4325;42.520;27.448;2022-11-20T02:19:52;15.20;;;3.80;;
8574;SDS011;4325;42.520;27.448;2022-11-20T02:22:21;9.90;;;3.33;;
8574;SDS011;4325;42.520;27.448;2022-11-20T02:24:56;16.73;;;3.93;;
8574;SDS011;4325;42.520;27.448;2022-11-20T02:27:26;16.23;;;3.83;;
8574;SDS011;4325;42.520;27.448;2022-11-20T02:29:53;17.63;;;3.10;;
8574;SDS011;4325;42.520;27.448;2022-11-20T02:32:25;9.80;;;3.17;;
8574;SDS011;4325;42.520;27.448;2022-11-20T02:34:53;16.83;;;3.70;;
8574;SDS011;4325;42.520;27.448;2022-11-20T02:37:20;17.53;;;3.77;;
8574;SDS011;4325;42.520;27.448;2022-11-20T02:39:48;15.03;;;3.63;;
8574;SDS011;4325;42.520;27.448;2022-11-20T02:42:18;15.03;;;3.40;;
8574;SDS011;4325;42.520;27.448;2022-11-20T02:44:45;13.57;;;3.50;;
8574;SDS011;4325;42.520;27.448;2022-11-20T02:47:12;13.47;;;3.50;;
8574;SDS011;4325;42.520;27.448;2022-11-20T02:49:39;15.90;;;3.77;;
8574;SDS011;4325;42.520;27.448;2022-11-20T02:52:06;15.37;;;3.17;;
8574;SDS011;4325;42.520;27.448;2022-11-20T02:54:32;14.37;;;3.60;;
8574;SDS011;4325;42.520;27.448;2022-11-20T02:56:59;9.17;;;3.70;;
8574;SDS011;4325;42.520;27.448;2022-11-20T02:59:27;13.00;;;3.83;;
8574;SDS011;4325;42.520;27.448;2022-11-20T03:01:54;12.27;;;3.50;;
8574;SDS011;4325;42.520;27.448;2022-11-20T03:04:21;10.27;;;3.47;;
8574;SDS011;4325;42.520;27.448;2022-11-20T03:06:48;15.00;;;4.13;;
8574;SDS011;4325;42.520;27.448;2022-11-20T03:09:15;13.23;;;3.30;;
8574;SDS011;4325;42.520;27.448;2022-11-20T03:11:41;15.83;;;3.90;;
8574;SDS011;4325;42.520;27.448;2022-11-20T03:14:08;11.33;;;2.93;;
8574;SDS011;4325;42.520;27.448;2022-11-20T03:16:36;17.47;;;3.90;;
8574;SDS011;4325;42.520;27.448;2022-11-20T03:19:03;18.17;;;3.80;;
8574;SDS011;4325;42.520;27.448;2022-11-20T03:21:30;12.40;;;3.60;;
8574;SDS011;4325;42.520;27.448;2022-11-20T03:23:59;19.70;;;4.23;;
8574;SDS011;4325;42.520;27.448;2022-11-20T03:26:26;10.97;;;3.30;;
8574;SDS011;4325;42.520;27.448;2022-11-20T03:28:54;15.47;;;3.53;;
8574;SDS011;4325;42.520;27.448;2022-11-20T03:31:23;14.87;;;4.00;;
8574;SDS011;4325;42.520;27.448;2022-11-20T03:33:52;16.53;;;3.87;;
8574;SDS011;4325;42.520;27.448;2022-11-20T03:36:20;8.77;;;3.33;;
8574;SDS011;4325;42.520;27.448;2022-11-20T03:38:47;13.33;;;4.03;;
8574;SDS011;4325;42.520;27.448;2022-11-20T03:41:15;12.90;;;3.30;;
8574;SDS011;4325;42.520;27.448;2022-11-20T03:43:46;11.87;;;3.40;;
8574;SDS011;4325;42.520;27.448;2022-11-20T03:46:14;12.27;;;4.23;;
8574;SDS011;4325;42.520;27.448;2022-11-20T03:48:41;11.70;;;3.43;;
8574;SDS011;4325;42.520;27.448;2022-11-20T03:51:10;13.93;;;3.80;;
8574;SDS011;4325;42.520;27.448;2022-11-20T03:53:38;11.63;;;3.90;;
8574;SDS011;4325;42.520;27.448;2022-11-20T03:56:06;19.40;;;4.40;;
8574;SDS011;4325;42.520;27.448;2022-11-20T03:58:33;14.83;;;3.50;;
8574;SDS011;4325;42.520;27.448;2022-11-20T04:01:05;12.57;;;3.87;;
8574;SDS011;4325;42.520;27.448;2022-11-20T04:03:33;14.07;;;3.70;;
8574;SDS011;4325;42.520;27.448;2022-11-20T04:06:04;19.37;;;3.93;;
8574;SDS011;4325;42.520;27.448;2022-11-20T04:08:33;12.00;;;3.27;;
8574;SDS011;4325;42.520;27.448;2022-11-20T04:11:10;13.87;;;3.37;;
8574;SDS011;4325;42.520;27.448;2022-11-20T04:13:39;15.63;;;3.73;;
8574;SDS011;4325;42.520;27.448;2022-11-20T04:16:07;10.33;;;3.80;;
8574;SDS011;4325;42.520;27.448;2022-11-20T04:18:35;18.50;;;4.60;;
8574;SDS011;4325;42.520;27.448;2022-11-20T04:21:02;17.00;;;3.67;;
8574;SDS011;4325;42.520;27.448;2022-11-20T04:23:30;13.93;;;3.60;;
8574;SDS011;4325;42.520;27.448;2022-11-20T04:26:01;20.63;;;4.37;;
8574;SDS011;4325;42.520;27.448;2022-11-20T04:28:29;18.93;;;4.30;;
8574;SDS011;4325;42.520;27.448;2022-11-20T04:31:01;17.97;;;4.07;;
8574;SDS011;4325;42.520;27.448;2022-11-20T04:33:28;14.53;;;4.20;;
8574;SDS011;4325;42.520;27.448;2022-11-20T04:35:59;20.50;;;3.77;;
8574;SDS011;4325;42.520;27.448;2022-11-20T04:38:27;18.67;;;4.20;;
8574;SDS011;4325;42.520;27.448;2022-11-20T04:40:55;10.50;;;3.00;;
8574;SDS011;4325;42.520;27.448;2022-11-20T04:43:25;13.10;;;3.77;;
8574;SDS011;4325;42.520;27.448;2022-11-20T04:45:51;18.00;;;4.47;;
8574;SDS011;4325;42.520;27.448;2022-11-20T04:48:19;14.50;;;4.30;;
8574;SDS011;4325;42.520;27.448;2022-11-20T04:50:46;15.97;;;3.70;;
8574;SDS011;4325;42.520;27.448;2022-11-20T04:53:12;13.67;;;4.20;;
8574;SDS011;4325;42.520;27.448;2022-11-20T04:55:39;16.30;;;3.83;;
8574;SDS011;4325;42.520;27.448;2022-11-20T04:58:06;19.53;;;4.57;;
8574;SDS011;4325;42.520;27.448;2022-11-20T05:00:34;26.33;;;4.87;;
8574;SDS011;4325;42.520;27.448;2022-11-20T05:03:01;17.60;;;4.13;;
8574;SDS011;4325;42.520;27.448;2022-11-20T05:05:28;18.97;;;4.47;;
8574;SDS011;4325;42.520;27.448;2022-11-20T05:07:55;16.20;;;4.10;;
8574;SDS011;4325;42.520;27.448;2022-11-20T05:10:22;21.10;;;4.50;;
8574;SDS011;4325;42.520;27.448;2022-11-20T05:12:49;20.10;;;4.23;;
8574;SDS011;4325;42.520;27.448;2022-11-20T05:15:16;27.57;;;4.13;;
8574;SDS011;4325;42.520;27.448;2022-11-20T05:17:47;24.10;;;4.87;;
8574;SDS011;4325;42.520;27.448;2022-11-20T05:20:15;12.03;;;4.10;;
8574;SDS011;4325;42.520;27.448;2022-11-20T05:22:43;19.80;;;4.50;;
8574;SDS011;4325;42.520;27.448;2022-11-20T05:25:10;18.57;;;4.30;;
8574;SDS011;4325;42.520;27.448;2022-11-20T05:27:38;22.67;;;4.73;;
8574;SDS011;4325;42.520;27.448;2022-11-20T05:30:05;17.97;;;4.00;;
8574;SDS011;4325;42.520;27.448;2022-11-20T05:32:33;17.67;;;4.70;;
8574;SDS011;4325;42.520;27.448;2022-11-20T05:35:02;20.47;;;5.73;;
8574;SDS011;4325;42.520;27.448;2022-11-20T05:37:29;20.63;;;5.47;;
8574;SDS011;4325;42.520;27.448;2022-11-20T05:39:56;13.73;;;4.63;;
8574;SDS011;4325;42.520;27.448;2022-11-20T05:42:22;15.07;;;4.30;;
8574;SDS011;4325;42.520;27.448;2022-11-20T05:44:59;14.90;;;3.40;;
8574;SDS011;4325;42.520;27.448;2022-11-20T05:47:27;12.93;;;4.03;;
8574;SDS011;4325;42.520;27.448;2022-11-20T05:49:54;11.83;;;3.90;;
8574;SDS011;4325;42.520;27.448;2022-11-20T05:52:22;10.83;;;3.83;;
8574;SDS011;4325;42.520;27.448;2022-11-20T05:54:49;19.30;;;3.90;;
8574;SDS011;4325;42.520;27.448;2022-11-20T05:57:16;9.10;;;3.17;;
8574;SDS011;4325;42.520;27.448;2022-11-20T05:59:43;15.77;;;4.37;;
8574;SDS011;4325;42.520;27.448;2022-11-20T06:02:10;16.10;;;3.63;;
8574;SDS011;4325;42.520;27.448;2022-11-20T06:04:37;20.33;;;4.03;;
8574;SDS011;4325;42.520;27.448;2022-11-20T06:07:04;24.90;;;4.50;;
8574;SDS011;4325;42.520;27.448;2022-11-20T06:09:33;16.30;;;4.33;;
8574;SDS011;4325;42.520;27.448;2022-11-20T06:12:00;12.20;;;4.00;;
8574;SDS011;4325;42.520;27.448;2022-11-20T06:14:26;22.07;;;3.73;;
8574;SDS011;4325;42.520;27.448;2022-11-20T06:16:53;11.53;;;3.60;;
8574;SDS011;4325;42.520;27.448;2022-11-20T06:19:20;16.10;;;4.17;;
8574;SDS011;4325;42.520;27.448;2022-11-20T06:21:47;16.07;;;3.63;;
8574;SDS011;4325;42.520;27.448;2022-11-20T06:24:14;12.90;;;3.73;;
8574;SDS011;4325;42.520;27.448;2022-11-20T06:26:43;18.00;;;4.23;;
8574;SDS011;4325;42.520;27.448;2022-11-20T06:29:10;19.90;;;4.10;;
8574;SDS011;4325;42.520;27.448;2022-11-20T06:31:37;14.80;;;4.20;;
8574;SDS011;4325;42.520;27.448;2022-11-20T06:34:04;14.50;;;4.23;;
8574;SDS011;4325;42.520;27.448;2022-11-20T06:36:31;15.07;;;4.10;;
8574;SDS011;4325;42.520;27.448;2022-11-20T06:38:59;22.57;;;4.23;;
8574;SDS011;4325;42.520;27.448;2022-11-20T06:41:26;16.80;;;4.83;;
8574;SDS011;4325;42.520;27.448;2022-11-20T06:43:54;11.20;;;3.80;;
8574;SDS011;4325;42.520;27.448;2022-11-20T06:46:21;17.90;;;4.70;;
8574;SDS011;4325;42.520;27.448;2022-11-20T06:48:48;15.73;;;3.83;;
8574;SDS011;4325;42.520;27.448;2022-11-20T06:51:16;18.67;;;4.30;;
8574;SDS011;4325;42.520;27.448;2022-11-20T06:53:43;14.17;;;3.90;;
8574;SDS011;4325;42.520;27.448;2022-11-20T06:56:10;11.97;;;3.23;;
8574;SDS011;4325;42.520;27.448;2022-11-20T06:58:37;17.67;;;4.27;;
8574;SDS011;4325;42.520;27.448;2022-11-20T07:01:06;25.57;;;4.77;;
8574;SDS011;4325;42.520;27.448;2022-11-20T07:03:35;10.20;;;3.87;;
8574;SDS011;4325;42.520;27.448;2022-11-20T07:06:02;27.10;;;4.80;;
8574;SDS011;4325;42.520;27.448;2022-11-20T07:08:29;15.40;;;3.67;;
8574;SDS011;4325;42.520;27.448;2022-11-20T07:10:57;21.43;;;4.47;;
8574;SDS011;4325;42.520;27.448;2022-11-20T07:13:25;19.30;;;4.07;;
8574;SDS011;4325;42.520;27.448;2022-11-20T07:15:52;20.30;;;3.77;;
8574;SDS011;4325;42.520;27.448;2022-11-20T07:18:20;17.73;;;4.20;;
8574;SDS011;4325;42.520;27.448;2022-11-20T07:20:47;19.47;;;4.07;;
8574;SDS011;4325;42.520;27.448;2022-11-20T07:23:14;13.37;;;4.40;;
8574;SDS011;4325;42.520;27.448;2022-11-20T07:25:40;17.73;;;4.30;;
8574;SDS011;4325;42.520;27.448;2022-11-20T07:28:07;18.37;;;4.13;;
8574;SDS011;4325;42.520;27.448;2022-11-20T07:30:35;17.63;;;3.90;;
8574;SDS011;4325;42.520;27.448;2022-11-20T07:33:02;16.57;;;4.00;;
8574;SDS011;4325;42.520;27.448;2022-11-20T07:35:31;17.07;;;3.80;;
8574;SDS011;4325;42.520;27.448;2022-11-20T07:37:58;18.00;;;3.60;;
8574;SDS011;4325;42.520;27.448;2022-11-20T07:40:24;24.17;;;4.87;;
8574;SDS011;4325;42.520;27.448;2022-11-20T07:42:52;12.70;;;4.03;;
8574;SDS011;4325;42.520;27.448;2022-11-20T07:45:19;19.17;;;4.10;;
8574;SDS011;4325;42.520;27.448;2022-11-20T07:47:48;16.43;;;4.67;;
8574;SDS011;4325;42.520;27.448;2022-11-20T07:50:15;17.53;;;3.73;;
8574;SDS011;4325;42.520;27.448;2022-11-20T07:52:44;18.40;;;3.57;;
8574;SDS011;4325;42.520;27.448;2022-11-20T07:55:11;21.47;;;4.83;;
8574;SDS011;4325;42.520;27.448;2022-11-20T07:57:39;16.37;;;4.07;;
8574;SDS011;4325;42.520;27.448;2022-11-20T08:00:07;20.50;;;3.97;;
8574;SDS011;4325;42.520;27.448;2022-11-20T08:02:36;27.87;;;5.03;;
8574;SDS011;4325;42.520;27.448;2022-11-20T08:05:04;17.57;;;4.63;;
8574;SDS011;4325;42.520;27.448;2022-11-20T08:07:34;17.73;;;4.80;;
8574;SDS011;4325;42.520;27.448;2022-11-20T08:10:03;20.00;;;4.43;;
8574;SDS011;4325;42.520;27.448;2022-11-20T08:12:31;20.13;;;4.37;;
8574;SDS011;4325;42.520;27.448;2022-11-20T08:15:15;17.20;;;4.77;;
8574;SDS011;4325;42.520;27.448;2022-11-20T08:17:42;14.73;;;3.70;;
8574;SDS011;4325;42.520;27.448;2022-11-20T08:20:09;15.80;;;4.27;;
8574;SDS011;4325;42.520;27.448;2022-11-20T08:22:36;19.23;;;4.27;;
8574;SDS011;4325;42.520;27.448;2022-11-20T08:25:05;16.57;;;4.33;;
8574;SDS011;4325;42.520;27.448;2022-11-20T08:27:32;23.57;;;4.70;;
8574;SDS011;4325;42.520;27.448;2022-11-20T08:29:59;21.43;;;4.87;;
8574;SDS011;4325;42.520;27.448;2022-11-20T08:32:26;24.73;;;4.53;;
8574;SDS011;4325;42.520;27.448;2022-11-20T08:34:53;22.23;;;4.17;;
8574;SDS011;4325;42.520;27.448;2022-11-20T08:37:19;18.00;;;4.17;;
8574;SDS011;4325;42.520;27.448;2022-11-20T08:39:46;18.77;;;4.20;;
8574;SDS011;4325;42.520;27.448;2022-11-20T08:42:14;17.30;;;4.53;;
8574;SDS011;4325;42.520;27.448;2022-11-20T08:44:41;16.17;;;4.10;;
8574;SDS011;4325;42.520;27.448;2022-11-20T08:47:08;22.60;;;4.40;;
8574;SDS011;4325;42.520;27.448;2022-11-20T08:49:35;17.30;;;3.83;;
8574;SDS011;4325;42.520;27.448;2022-11-20T08:52:02;18.13;;;4.00;;
8574;SDS011;4325;42.520;27.448;2022-11-20T08:54:29;31.73;;;5.97;;
8574;SDS011;4325;42.520;27.448;2022-11-20T08:56:56;22.87;;;3.87;;
8574;SDS011;4325;42.520;27.448;2022-11-20T08:59:24;20.83;;;5.30;;
8574;SDS011;4325;42.520;27.448;2022-11-20T09:01:51;15.73;;;4.67;;
8574;SDS011;4325;42.520;27.448;2022-11-20T09:04:18;21.73;;;4.60;;
8574;SDS011;4325;42.520;27.448;2022-11-20T09:06:46;22.30;;;5.37;;
8574;SDS011;4325;42.520;27.448;2022-11-20T09:09:16;24.97;;;5.10;;
8574;SDS011;4325;42.520;27.448;2022-11-20T09:11:43;19.40;;;4.93;;
8574;SDS011;4325;42.520;27.448;2022-11-20T09:14:10;18.47;;;5.57;;
8574;SDS011;4325;42.520;27.448;2022-11-20T09:16:39;25.87;;;4.47;;
8574;SDS011;4325;42.520;27.448;2022-11-20T09:19:06;23.17;;;5.00;;
8574;SDS011;4325;42.520;27.448;2022-11-20T09:21:33;12.37;;;3.93;;
8574;SDS011;4325;42.520;27.448;2022-11-20T09:24:00;21.23;;;4.93;;
8574;SDS011;4325;42.520;27.448;2022-11-20T09:26:26;20.57;;;4.70;;
8574;SDS011;4325;42.520;27.448;2022-11-20T09:28:53;32.40;;;6.03;;
8574;SDS011;4325;42.520;27.448;2022-11-20T09:31:22;15.87;;;4.93;;
8574;SDS011;4325;42.520;27.448;2022-11-20T09:33:52;16.77;;;4.33;;
8574;SDS011;4325;42.520;27.448;2022-11-20T09:36:19;22.60;;;4.67;;
8574;SDS011;4325;42.520;27.448;2022-11-20T09:38:46;32.57;;;5.40;;
8574;SDS011;4325;42.520;27.448;2022-11-20T09:41:19;24.97;;;5.70;;
8574;SDS011;4325;42.520;27.448;2022-11-20T09:44:02;21.40;;;5.10;;
8574;SDS011;4325;42.520;27.448;2022-11-20T09:46:37;21.23;;;4.90;;
8574;SDS011;4325;42.520;27.448;2022-11-20T09:49:18;29.80;;;5.60;;
8574;SDS011;4325;42.520;27.448;2022-11-20T09:51:57;26.17;;;5.63;;
8574;SDS011;4325;42.520;27.448;2022-11-20T09:54:26;23.57;;;5.73;;
8574;SDS011;4325;42.520;27.448;2022-11-20T09:56:58;21.63;;;5.07;;
8574;SDS011;4325;42.520;27.448;2022-11-20T09:59:35;25.27;;;5.50;;
8574;SDS011;4325;42.520;27.448;2022-11-20T10:02:11;21.77;;;4.83;;
8574;SDS011;4325;42.520;27.448;2022-11-20T10:04:46;25.33;;;5.23;;
8574;SDS011;4325;42.520;27.448;2022-11-20T10:07:19;14.83;;;4.17;;
8574;SDS011;4325;42.520;27.448;2022-11-20T10:09:50;20.03;;;4.43;;
8574;SDS011;4325;42.520;27.448;2022-11-20T10:12:22;26.97;;;5.00;;
8574;SDS011;4325;42.520;27.448;2022-11-20T10:14:57;26.30;;;5.30;;
8574;SDS011;4325;42.520;27.448;2022-11-20T10:17:41;20.40;;;5.33;;
8574;SDS011;4325;42.520;27.448;2022-11-20T10:20:39;29.00;;;5.47;;
8574;SDS011;4325;42.520;27.448;2022-11-20T10:23:17;20.07;;;4.30;;
8574;SDS011;4325;42.520;27.448;2022-11-20T10:28:46;30.90;;;5.33;;
8574;SDS011;4325;42.520;27.448;2022-11-20T10:31:25;24.57;;;4.83;;
8574;SDS011;4325;42.520;27.448;2022-11-20T10:33:56;25.77;;;5.43;;
8574;SDS011;4325;42.520;27.448;2022-11-20T10:36:29;25.50;;;5.60;;
8574;SDS011;4325;42.520;27.448;2022-11-20T10:39:03;27.27;;;4.67;;
8574;SDS011;4325;42.520;27.448;2022-11-20T10:41:41;25.73;;;6.37;;
8574;SDS011;4325;42.520;27.448;2022-11-20T10:44:10;23.23;;;5.33;;
8574;SDS011;4325;42.520;27.448;2022-11-20T10:47:00;24.33;;;5.67;;
8574;SDS011;4325;42.520;27.448;2022-11-20T10:49:27;30.53;;;6.27;;
8574;SDS011;4325;42.520;27.448;2022-11-20T10:51:59;31.10;;;5.97;;
8574;SDS011;4325;42.520;27.448;2022-11-20T10:54:37;27.63;;;5.93;;
8574;SDS011;4325;42.520;27.448;2022-11-20T10:57:14;13.43;;;4.70;;
8574;SDS011;4325;42.520;27.448;2022-11-20T10:59:52;26.80;;;6.77;;
8574;SDS011;4325;42.520;27.448;2022-11-20T11:02:31;24.93;;;5.70;;
8574;SDS011;4325;42.520;27.448;2022-11-20T11:05:04;35.83;;;6.00;;
8574;SDS011;4325;42.520;27.448;2022-11-20T11:07:45;30.60;;;6.83;;
8574;SDS011;4325;42.520;27.448;2022-11-20T11:10:16;26.73;;;5.13;;
8574;SDS011;4325;42.520;27.448;2022-11-20T11:12:46;22.70;;;5.97;;
8574;SDS011;4325;42.520;27.448;2022-11-20T11:15:14;37.20;;;6.90;;
8574;SDS011;4325;42.520;27.448;2022-11-20T11:17:52;36.43;;;6.90;;
8574;SDS011;4325;42.520;27.448;2022-11-20T11:20:20;26.93;;;6.13;;
8574;SDS011;4325;42.520;27.448;2022-11-20T11:22:49;19.70;;;5.83;;
8574;SDS011;4325;42.520;27.448;2022-11-20T11:25:22;28.03;;;6.23;;
8574;SDS011;4325;42.520;27.448;2022-11-20T11:27:54;19.90;;;5.73;;
8574;SDS011;4325;42.520;27.448;2022-11-20T11:30:23;32.77;;;7.57;;
8574;SDS011;4325;42.520;27.448;2022-11-20T11:33:01;36.27;;;7.70;;
8574;SDS011;4325;42.520;27.448;2022-11-20T11:35:30;29.00;;;5.97;;
8574;SDS011;4325;42.520;27.448;2022-11-20T11:38:04;30.53;;;5.43;;
8574;SDS011;4325;42.520;27.448;2022-11-20T11:40:33;25.47;;;7.10;;
8574;SDS011;4325;42.520;27.448;2022-11-20T11:43:05;34.83;;;7.30;;
8574;SDS011;4325;42.520;27.448;2022-11-20T11:45:54;29.40;;;6.73;;
8574;SDS011;4325;42.520;27.448;2022-11-20T11:48:21;32.33;;;7.63;;
8574;SDS011;4325;42.520;27.448;2022-11-20T11:50:49;34.10;;;7.03;;
8574;SDS011;4325;42.520;27.448;2022-11-20T11:53:18;34.20;;;6.97;;
8574;SDS011;4325;42.520;27.448;2022-11-20T11:55:49;31.87;;;6.53;;
8574;SDS011;4325;42.520;27.448;2022-11-20T11:58:34;45.90;;;8.80;;
8574;SDS011;4325;42.520;27.448;2022-11-20T12:01:15;32.20;;;6.93;;
8574;SDS011;4325;42.520;27.448;2022-11-20T12:03:52;32.70;;;8.27;;
8574;SDS011;4325;42.520;27.448;2022-11-20T12:06:25;32.90;;;7.23;;
8574;SDS011;4325;42.520;27.448;2022-11-20T12:08:59;33.37;;;7.37;;
8574;SDS011;4325;42.520;27.448;2022-11-20T12:11:30;34.00;;;7.50;;
8574;SDS011;4325;42.520;27.448;2022-11-20T12:14:02;26.60;;;6.57;;
8574;SDS011;4325;42.520;27.448;2022-11-20T12:16:37;36.20;;;6.83;;
8574;SDS011;4325;42.520;27.448;2022-11-20T12:19:07;33.43;;;6.23;;
8574;SDS011;4325;42.520;27.448;2022-11-20T12:21:40;42.83;;;7.40;;
8574;SDS011;4325;42.520;27.448;2022-11-20T12:27:19;41.47;;;7.03;;
8574;SDS011;4325;42.520;27.448;2022-11-20T12:30:10;29.80;;;7.30;;
8574;SDS011;4325;42.520;27.448;2022-11-20T12:35:47;37.90;;;7.50;;
8574;SDS011;4325;42.520;27.448;2022-11-20T12:38:29;31.70;;;8.37;;
8574;SDS011;4325;42.520;27.448;2022-11-20T12:41:19;39.30;;;7.93;;
8574;SDS011;4325;42.520;27.448;2022-11-20T12:44:16;36.97;;;7.73;;
8574;SDS011;4325;42.520;27.448;2022-11-20T12:47:22;32.80;;;7.30;;
8574;SDS011;4325;42.520;27.448;2022-11-20T12:49:59;36.00;;;7.30;;
8574;SDS011;4325;42.520;27.448;2022-11-20T12:52:37;30.60;;;6.80;;
8574;SDS011;4325;42.520;27.448;2022-11-20T12:55:23;36.50;;;6.77;;
8574;SDS011;4325;42.520;27.448;2022-11-20T12:58:02;39.10;;;8.50;;
8574;SDS011;4325;42.520;27.448;2022-11-20T13:00:38;39.43;;;7.63;;
8574;SDS011;4325;42.520;27.448;2022-11-20T13:06:04;32.60;;;7.93;;
8574;SDS011;4325;42.520;27.448;2022-11-20T13:08:40;33.97;;;8.17;;
8574;SDS011;4325;42.520;27.448;2022-11-20T13:11:12;34.33;;;7.27;;
8574;SDS011;4325;42.520;27.448;2022-11-20T13:13:59;42.77;;;7.70;;
8574;SDS011;4325;42.520;27.448;2022-11-20T13:16:47;44.27;;;8.57;;
8574;SDS011;4325;42.520;27.448;2022-11-20T13:19:20;46.10;;;8.77;;
8574;SDS011;4325;42.520;27.448;2022-11-20T13:21:48;32.20;;;8.67;;
8574;SDS011;4325;42.520;27.448;2022-11-20T13:24:22;40.37;;;7.43;;
8574;SDS011;4325;42.520;27.448;2022-11-20T13:30:00;44.77;;;8.40;;
8574;SDS011;4325;42.520;27.448;2022-11-20T13:32:29;33.27;;;6.97;;
8574;SDS011;4325;42.520;27.448;2022-11-20T13:34:58;34.30;;;6.73;;
8574;SDS011;4325;42.520;27.448;2022-11-20T13:37:27;52.10;;;8.37;;
8574;SDS011;4325;42.520;27.448;2022-11-20T13:40:11;44.50;;;7.00;;
8574;SDS011;4325;42.520;27.448;2022-11-20T13:42:43;41.57;;;9.10;;
8574;SDS011;4325;42.520;27.448;2022-11-20T13:45:22;49.70;;;7.60;;
8574;SDS011;4325;42.520;27.448;2022-11-20T13:47:51;44.33;;;8.43;;
8574;SDS011;4325;42.520;27.448;2022-11-20T13:50:19;33.63;;;7.60;;
8574;SDS011;4325;42.520;27.448;2022-11-20T13:52:55;29.57;;;6.00;;
8574;SDS011;4325;42.520;27.448;2022-11-20T13:55:33;34.10;;;8.20;;
8574;SDS011;4325;42.520;27.448;2022-11-20T13:58:07;37.13;;;6.83;;
8574;SDS011;4325;42.520;27.448;2022-11-20T14:00:47;44.07;;;7.87;;
8574;SDS011;4325;42.520;27.448;2022-11-20T14:03:18;39.57;;;6.73;;
8574;SDS011;4325;42.520;27.448;2022-11-20T14:05:49;54.37;;;8.17;;
8574;SDS011;4325;42.520;27.448;2022-11-20T14:08:23;36.03;;;7.40;;
8574;SDS011;4325;42.520;27.448;2022-11-20T14:11:04;45.47;;;8.20;;
8574;SDS011;4325;42.520;27.448;2022-11-20T14:13:32;39.37;;;7.80;;
8574;SDS011;4325;42.520;27.448;2022-11-20T14:16:01;38.17;;;7.43;;
8574;SDS011;4325;42.520;27.448;2022-11-20T14:18:27;50.23;;;8.07;;
8574;SDS011;4325;42.520;27.448;2022-11-20T14:20:54;41.83;;;8.10;;
8574;SDS011;4325;42.520;27.448;2022-11-20T14:23:25;31.20;;;7.27;;
8574;SDS011;4325;42.520;27.448;2022-11-20T14:25:53;47.60;;;8.40;;
8574;SDS011;4325;42.520;27.448;2022-11-20T14:28:21;43.40;;;7.07;;
8574;SDS011;4325;42.520;27.448;2022-11-20T14:30:52;37.47;;;7.70;;
8574;SDS011;4325;42.520;27.448;2022-11-20T14:33:21;49.23;;;7.50;;
8574;SDS011;4325;42.520;27.448;2022-11-20T14:35:51;58.87;;;8.57;;
8574;SDS011;4325;42.520;27.448;2022-11-20T14:38:21;38.30;;;6.73;;
8574;SDS011;4325;42.520;27.448;2022-11-20T14:40:51;41.00;;;7.90;;
8574;SDS011;4325;42.520;27.448;2022-11-20T14:43:20;44.70;;;7.57;;
8574;SDS011;4325;42.520;27.448;2022-11-20T14:45:52;33.57;;;6.40;;
8574;SDS011;4325;42.520;27.448;2022-11-20T14:48:28;38.83;;;8.07;;
8574;SDS011;4325;42.520;27.448;2022-11-20T14:50:57;42.37;;;8.07;;
8574;SDS011;4325;42.520;27.448;2022-11-20T14:53:25;55.70;;;8.70;;
8574;SDS011;4325;42.520;27.448;2022-11-20T14:55:55;42.50;;;8.40;;
8574;SDS011;4325;42.520;27.448;2022-11-20T14:58:25;58.03;;;8.40;;
8574;SDS011;4325;42.520;27.448;2022-11-20T15:00:53;41.17;;;7.13;;
8574;SDS011;4325;42.520;27.448;2022-11-20T15:03:21;45.80;;;7.30;;
8574;SDS011;4325;42.520;27.448;2022-11-20T15:05:50;41.03;;;6.90;;
8574;SDS011;4325;42.520;27.448;2022-11-20T15:08:17;45.23;;;9.03;;
8574;SDS011;4325;42.520;27.448;2022-11-20T15:10:45;41.60;;;7.37;;
8574;SDS011;4325;42.520;27.448;2022-11-20T15:13:14;49.13;;;8.37;;
8574;SDS011;4325;42.520;27.448;2022-11-20T15:15:47;36.33;;;8.33;;
8574;SDS011;4325;42.520;27.448;2022-11-20T15:18:16;37.20;;;7.33;;
8574;SDS011;4325;42.520;27.448;2022-11-20T15:20:44;46.50;;;8.57;;